Time;durP1;ratioP1;P1;durP2;ratioP2;P2;SDS_P1;SDS_P2;PMS_P1;PMS_P2;Temp;Humidity;BMP_temperature;BMP_pressure;BME280_temperature;BME280_humidity;BME280_pressure;Samples;Min_cycle;Max_cycle;Signal;HPM_P1;HPM_P2
2021/03/13 00:00:09;;;;;;;79.82;60.03;;;12.80;64.70;;;;;;5037176;28;20056;-53
2021/03/13 00:02:35;;;;;;;83.90;58.15;;;12.70;65.00;;;;;;5041475;28;20037;-52
2021/03/13 00:05:00;;;;;;;77.43;58.45;;;12.70;65.00;;;;;;5037896;28;20546;-52
2021/03/13 00:07:26;;;;;;;84.13;59.58;;;12.80;65.00;;;;;;5035953;28;20076;-54
2021/03/13 00:09:52;;;;;;;79.13;58.55;;;12.80;65.80;;;;;;5024086;28;20107;-53
2021/03/13 00:12:17;;;;;;;82.00;58.10;;;12.70;65.20;;;;;;5039741;28;20060;-54
2021/03/13 00:14:43;;;;;;;79.57;57.25;;;12.70;65.20;;;;;;5026590;28;20045;-53
2021/03/13 00:17:08;;;;;;;84.35;58.95;;;12.80;65.20;;;;;;5013384;28;20052;-55
2021/03/13 00:19:34;;;;;;;76.68;58.03;;;12.80;65.20;;;;;;5036399;28;20049;-54
2021/03/13 00:22:00;;;;;;;82.50;58.58;;;12.70;65.20;;;;;;5037565;28;20041;-55
2021/03/13 00:24:25;;;;;;;81.20;58.35;;;12.70;65.40;;;;;;5038877;28;20036;-55
2021/03/13 00:26:51;;;;;;;80.45;60.05;;;12.70;65.50;;;;;;5032439;28;20079;-55
2021/03/13 00:29:16;;;;;;;86.80;59.45;;;12.70;65.40;;;;;;5035367;28;20135;-54
2021/03/13 00:31:45;;;;;;;81.40;61.97;;;12.70;65.40;;;;;;5040249;28;20058;-55
2021/03/13 00:34:11;;;;;;;85.53;61.33;;;12.70;65.50;;;;;;5016084;28;20075;-55
2021/03/13 00:36:36;;;;;;;81.13;61.25;;;12.70;65.30;;;;;;5038369;28;20073;-52
2021/03/13 00:39:03;;;;;;;81.28;58.83;;;12.70;65.50;;;;;;5036352;28;20446;-54
2021/03/13 00:41:29;;;;;;;89.60;61.83;;;12.60;65.60;;;;;;5040485;28;20071;-54
2021/03/13 00:43:54;;;;;;;88.72;62.38;;;12.60;65.80;;;;;;5032529;28;20123;-55
2021/03/13 00:46:20;;;;;;;82.53;60.25;;;12.60;65.60;;;;;;5036607;28;20401;-55
2021/03/13 00:48:46;;;;;;;82.35;61.10;;;12.50;65.80;;;;;;5034287;28;20033;-55
2021/03/13 00:51:11;;;;;;;83.78;62.90;;;12.50;65.70;;;;;;5042283;28;20487;-51
2021/03/13 00:53:37;;;;;;;88.88;64.68;;;12.50;65.80;;;;;;5033974;28;20036;-55
2021/03/13 00:56:02;;;;;;;91.45;65.05;;;12.50;65.80;;;;;;5038392;28;20505;-55
2021/03/13 00:58:28;;;;;;;89.82;64.95;;;12.50;65.90;;;;;;5032571;28;20453;-56
2021/03/13 01:00:54;;;;;;;85.50;62.33;;;12.50;65.80;;;;;;5036812;28;20375;-53
2021/03/13 01:03:19;;;;;;;92.53;63.53;;;12.50;65.70;;;;;;5012604;28;20128;-54
2021/03/13 01:05:45;;;;;;;94.28;67.57;;;12.50;65.80;;;;;;5024310;28;20120;-55
2021/03/13 01:08:10;;;;;;;88.47;65.55;;;12.60;65.70;;;;;;5026560;28;20037;-52
2021/03/13 01:10:38;;;;;;;94.78;67.13;;;12.50;65.80;;;;;;5035742;28;20059;-53
2021/03/13 01:13:05;;;;;;;86.97;64.72;;;12.50;65.90;;;;;;5037550;28;20395;-53
2021/03/13 01:15:31;;;;;;;94.45;66.30;;;12.50;66.00;;;;;;5030830;28;20199;-55
2021/03/13 01:17:57;;;;;;;86.55;63.00;;;12.50;66.20;;;;;;5038173;28;20429;-54
2021/03/13 01:20:24;;;;;;;86.03;64.38;;;12.40;66.20;;;;;;5033689;28;20037;-54
2021/03/13 01:22:50;;;;;;;89.60;65.25;;;12.40;66.30;;;;;;5024727;28;20029;-54
2021/03/13 01:25:16;;;;;;;86.20;63.83;;;12.40;66.70;;;;;;5029216;28;20053;-53
2021/03/13 01:27:43;;;;;;;87.28;63.80;;;12.40;66.90;;;;;;5036900;28;20513;-55
2021/03/13 01:30:13;;;;;;;89.03;63.95;;;12.40;66.10;;;;;;5032995;28;20033;-51
2021/03/13 01:32:39;;;;;;;88.57;63.25;;;12.40;66.40;;;;;;5040845;28;20042;-54
2021/03/13 01:35:06;;;;;;;89.75;63.80;;;12.30;66.30;;;;;;5030817;28;20124;-51
2021/03/13 01:37:32;;;;;;;86.70;62.83;;;12.40;66.40;;;;;;5039037;28;20045;-49
2021/03/13 01:40:53;;;;;;;93.55;63.50;;;12.30;66.30;;;;;;5038658;28;20044;-54
2021/03/13 01:43:19;;;;;;;89.22;65.00;;;12.40;66.80;;;;;;4981281;28;20037;-54
2021/03/13 01:45:44;;;;;;;89.30;63.67;;;12.30;66.60;;;;;;5036748;28;20036;-54
2021/03/13 01:48:11;;;;;;;92.90;64.82;;;12.30;66.70;;;;;;5041111;28;20029;-51
2021/03/13 01:50:37;;;;;;;88.22;64.00;;;12.30;66.40;;;;;;5038530;28;20037;-52
2021/03/13 01:53:02;;;;;;;88.57;64.45;;;12.20;66.60;;;;;;5043086;28;20420;-51
2021/03/13 01:55:28;;;;;;;85.13;64.35;;;12.20;66.90;;;;;;5034034;28;20053;-50
2021/03/13 01:57:54;;;;;;;90.57;65.80;;;12.20;66.60;;;;;;5043146;28;20041;-51
2021/03/13 02:00:22;;;;;;;92.97;66.35;;;12.30;66.60;;;;;;5038311;28;20042;-54
2021/03/13 02:02:48;;;;;;;92.05;65.40;;;12.20;66.70;;;;;;5039501;28;20052;-54
2021/03/13 02:05:25;;;;;;;84.65;63.90;;;12.20;66.80;;;;;;5037603;28;20651;-53
2021/03/13 02:08:17;;;;;;;90.43;64.60;;;12.20;67.00;;;;;;5033259;28;20087;-54
2021/03/13 02:11:00;;;;;;;87.65;65.40;;;12.20;66.90;;;;;;4954312;28;20045;-54
2021/03/13 02:13:31;;;;;;;84.50;63.72;;;12.20;67.20;;;;;;5038251;28;20041;-53
2021/03/13 02:16:33;;;;;;;87.93;65.57;;;12.10;67.20;;;;;;5043999;28;20114;-50
2021/03/13 02:19:23;;;;;;;91.10;67.03;;;12.10;67.70;;;;;;5008698;28;20034;-52
2021/03/13 02:21:57;;;;;;;89.47;65.95;;;12.10;67.50;;;;;;5007792;28;20041;-54
2021/03/13 02:24:49;;;;;;;90.45;67.97;;;12.10;67.10;;;;;;5034660;28;20040;-54
2021/03/13 02:27:21;;;;;;;90.30;67.13;;;12.20;67.50;;;;;;5004930;28;20061;-54
2021/03/13 02:30:03;;;;;;;91.70;64.07;;;12.10;67.20;;;;;;5043361;28;20104;-54
2021/03/13 02:33:03;;;;;;;89.43;65.93;;;12.10;67.50;;;;;;5035159;28;20057;-56
2021/03/13 02:35:32;;;;;;;89.45;63.72;;;12.20;67.50;;;;;;5013446;28;20410;-55
2021/03/13 02:38:06;;;;;;;87.60;63.90;;;12.10;67.20;;;;;;5038668;28;21664;-51
2021/03/13 02:40:38;;;;;;;93.07;65.00;;;12.00;67.10;;;;;;5041494;28;20037;-51
2021/03/13 02:43:07;;;;;;;88.57;63.55;;;12.00;67.30;;;;;;5034766;28;20036;-54
2021/03/13 02:45:37;;;;;;;89.88;65.07;;;12.00;67.00;;;;;;5041885;28;20037;-56
2021/03/13 02:48:07;;;;;;;88.57;66.88;;;12.00;67.30;;;;;;5033813;28;20033;-51
2021/03/13 02:57:19;;;;;;;93.93;65.68;;;11.90;68.00;;;;;;4964880;28;20049;-54
2021/03/13 02:59:47;;;;;;;92.35;65.10;;;11.90;67.70;;;;;;5033346;28;20045;-51
2021/03/13 03:02:14;;;;;;;91.60;66.50;;;11.90;67.50;;;;;;5028030;28;20419;-50
2021/03/13 03:04:41;;;;;;;86.68;65.00;;;12.00;67.50;;;;;;5041123;28;20052;-50
2021/03/13 03:07:09;;;;;;;94.00;67.88;;;11.90;67.30;;;;;;5039452;28;20036;-52
2021/03/13 03:09:37;;;;;;;100.10;68.65;;;11.90;67.40;;;;;;5036016;28;20057;-53
2021/03/13 03:12:04;;;;;;;93.85;68.28;;;11.90;67.40;;;;;;5041113;28;20044;-55
2021/03/13 03:14:31;;;;;;;92.80;66.47;;;11.80;67.50;;;;;;5031989;28;20084;-52
2021/03/13 03:16:59;;;;;;;95.30;69.28;;;11.90;67.40;;;;;;5039020;28;20128;-51
2021/03/13 03:19:26;;;;;;;92.40;69.38;;;11.80;67.70;;;;;;5039658;28;20065;-54
2021/03/13 03:21:53;;;;;;;98.55;68.63;;;11.80;67.60;;;;;;5040569;28;20102;-54
2021/03/13 03:24:19;;;;;;;95.40;69.93;;;11.90;67.70;;;;;;5032504;28;20082;-53
2021/03/13 03:26:46;;;;;;;101.63;70.13;;;11.90;67.60;;;;;;5036219;28;20034;-51
2021/03/13 03:29:12;;;;;;;93.15;68.80;;;11.90;67.80;;;;;;5002596;28;20039;-53
2021/03/13 03:31:37;;;;;;;92.15;66.85;;;11.80;68.10;;;;;;5023294;28;20493;-55
2021/03/13 03:40:48;;;;;;;99.45;70.07;;;11.90;68.50;;;;;;4981390;28;20083;-55
2021/03/13 03:43:20;;;;;;;97.68;67.93;;;11.80;68.10;;;;;;5041843;28;20056;-54
2021/03/13 03:45:53;;;;;;;95.05;67.68;;;11.80;68.20;;;;;;5034831;28;20099;-50
2021/03/13 03:48:21;;;;;;;95.43;68.13;;;11.80;68.00;;;;;;5024398;28;20044;-55
2021/03/13 03:50:47;;;;;;;97.45;69.80;;;11.80;68.10;;;;;;5033219;28;20073;-55
2021/03/13 03:53:32;;;;;;;96.13;70.95;;;11.80;67.90;;;;;;5031258;28;20037;-52
2021/03/13 03:55:58;;;;;;;96.68;68.25;;;11.90;68.20;;;;;;5024609;28;20103;-50
2021/03/13 03:58:28;;;;;;;94.00;69.00;;;11.80;68.20;;;;;;5035352;28;20099;-50
2021/03/13 04:00:56;;;;;;;100.78;70.63;;;11.70;68.10;;;;;;5035846;28;20070;-50
2021/03/13 04:03:22;;;;;;;96.82;69.65;;;11.70;68.30;;;;;;5039132;28;20354;-50
2021/03/13 04:05:48;;;;;;;96.45;69.10;;;11.70;68.50;;;;;;5030841;28;20093;-49
2021/03/13 04:08:17;;;;;;;95.13;68.63;;;11.60;68.40;;;;;;5036044;28;20116;-51
2021/03/13 04:10:46;;;;;;;91.63;67.47;;;11.60;68.30;;;;;;5036389;28;20519;-49
2021/03/13 04:13:13;;;;;;;96.10;69.57;;;11.70;68.40;;;;;;5036448;28;20146;-53
2021/03/13 04:16:25;;;;;;;95.72;69.22;;;11.60;68.50;;;;;;5025861;28;20390;-55
2021/03/13 04:18:51;;;;;;;97.43;66.10;;;11.40;69.00;;;;;;5009967;28;20120;-54
2021/03/13 04:21:17;;;;;;;90.47;64.93;;;11.40;69.20;;;;;;5026169;28;20121;-52
2021/03/13 04:23:48;;;;;;;89.72;66.03;;;11.20;69.60;;;;;;5036674;28;20057;-53
2021/03/13 04:26:21;;;;;;;84.20;63.15;;;11.20;69.50;;;;;;5038045;28;20041;-53
2021/03/13 04:28:48;;;;;;;87.85;63.42;;;11.20;70.40;;;;;;5037506;28;20180;-49
2021/03/13 04:31:16;;;;;;;92.47;62.28;;;11.10;69.50;;;;;;5031907;28;20252;-51
2021/03/13 04:33:42;;;;;;;85.85;61.72;;;11.20;69.70;;;;;;5039388;28;20041;-53
2021/03/13 04:36:10;;;;;;;84.53;57.65;;;11.10;69.50;;;;;;5039897;28;20044;-56
2021/03/13 04:38:37;;;;;;;77.20;55.08;;;11.10;69.70;;;;;;5033623;28;20072;-54
2021/03/13 04:41:04;;;;;;;72.82;52.22;;;11.00;70.30;;;;;;5037011;28;20043;-51
2021/03/13 04:46:53;;;;;;;72.60;51.97;;;11.00;70.30;;;;;;4986787;28;20528;-54
2021/03/13 04:49:19;;;;;;;74.78;51.25;;;10.90;70.60;;;;;;5031756;28;20048;-49
2021/03/13 05:01:50;;;;;;;77.93;52.55;;;10.70;71.60;;;;;;4984180;28;20504;-54
2021/03/13 05:04:16;;;;;;;71.57;49.80;;;10.70;71.00;;;;;;5038721;28;20033;-54
2021/03/13 05:06:42;;;;;;;71.47;50.15;;;10.70;71.00;;;;;;5040179;28;20412;-50
2021/03/13 05:09:07;;;;;;;72.80;50.08;;;10.80;70.60;;;;;;5033338;28;20433;-55
2021/03/13 05:11:34;;;;;;;58.28;43.55;;;10.80;70.40;;;;;;5029776;28;20433;-54
2021/03/13 05:14:01;;;;;;;63.20;45.63;;;10.70;70.40;;;;;;5036229;28;20401;-50
2021/03/13 05:16:27;;;;;;;63.85;42.72;;;10.70;70.40;;;;;;5018936;28;20480;-50
2021/03/13 05:18:52;;;;;;;61.85;45.35;;;10.70;70.40;;;;;;5040732;28;20131;-50
2021/03/13 05:21:18;;;;;;;66.05;46.50;;;10.60;70.70;;;;;;5024184;28;20045;-52
2021/03/13 05:30:28;;;;;;;72.17;45.77;;;10.50;71.40;;;;;;5010078;28;20043;-54
2021/03/13 05:32:53;;;;;;;65.05;44.50;;;10.50;71.20;;;;;;5039572;28;20493;-53
2021/03/13 05:35:20;;;;;;;63.75;44.35;;;10.50;71.30;;;;;;5025010;28;20470;-52
2021/03/13 05:37:46;;;;;;;68.95;46.58;;;10.60;71.30;;;;;;5040900;28;20075;-55
2021/03/13 05:40:12;;;;;;;62.25;45.40;;;10.50;71.10;;;;;;5038688;28;20052;-50
2021/03/13 05:42:39;;;;;;;65.63;45.88;;;10.50;71.10;;;;;;5045015;28;20063;-53
2021/03/13 05:45:06;;;;;;;62.83;44.72;;;10.50;71.00;;;;;;5036900;28;20044;-52
2021/03/13 05:47:35;;;;;;;61.05;43.65;;;10.50;71.50;;;;;;5047148;28;20128;-54
2021/03/13 05:50:12;;;;;;;63.30;44.20;;;10.60;71.00;;;;;;5036654;28;20467;-53
2021/03/13 05:52:39;;;;;;;64.18;44.45;;;10.60;71.30;;;;;;5041878;28;20124;-52
2021/03/13 05:55:07;;;;;;;64.60;45.70;;;10.60;71.00;;;;;;5036258;28;20049;-51
2021/03/13 06:00:55;;;;;;;67.80;44.67;;;10.70;71.30;;;;;;4951407;28;20107;-55
2021/03/13 06:03:20;;;;;;;68.17;47.33;;;10.60;70.90;;;;;;5028308;28;20045;-52
2021/03/13 06:05:46;;;;;;;61.97;45.47;;;10.60;71.20;;;;;;5039552;28;20509;-54
2021/03/13 06:08:16;;;;;;;64.00;46.13;;;10.70;71.00;;;;;;5039657;28;20040;-51
2021/03/13 06:10:43;;;;;;;71.03;50.08;;;10.70;71.10;;;;;;5037927;28;20057;-54
2021/03/13 06:13:10;;;;;;;74.88;52.75;;;10.80;70.90;;;;;;5040443;28;20041;-54
2021/03/13 06:15:36;;;;;;;72.63;51.70;;;10.80;70.60;;;;;;5038635;28;20573;-52
2021/03/13 06:18:05;;;;;;;70.43;50.20;;;10.80;70.80;;;;;;5038788;28;20041;-54
2021/03/13 06:20:35;;;;;;;78.37;53.50;;;10.80;70.80;;;;;;5040180;28;20040;-54
2021/03/13 06:23:12;;;;;;;83.22;56.40;;;10.90;71.00;;;;;;5036347;28;20056;-51
2021/03/13 06:25:38;;;;;;;79.72;53.22;;;10.90;71.10;;;;;;5042569;28;21340;-52
2021/03/13 06:28:19;;;;;;;73.35;54.00;;;11.00;70.50;;;;;;5036686;28;20347;-54
2021/03/13 06:30:50;;;;;;;72.32;54.17;;;11.10;71.00;;;;;;5041249;28;20485;-50
2021/03/13 06:33:25;;;;;;;77.53;54.40;;;11.00;70.80;;;;;;5043205;28;20379;-55
2021/03/13 06:35:52;;;;;;;;;;;11.10;70.50;;;;;;5044345;28;20099;-54
2021/03/13 06:38:20;;;;;;;82.70;54.95;;;11.00;71.30;;;;;;5036665;28;19913;-54
2021/03/13 06:40:47;;;;;;;76.13;54.00;;;11.10;70.20;;;;;;5018086;28;20397;-54
2021/03/13 06:43:23;;;;;;;77.60;53.42;;;11.10;70.20;;;;;;5038669;28;20037;-53
2021/03/13 06:46:12;;;;;;;77.13;55.03;;;11.10;70.30;;;;;;5037263;28;20119;-51
2021/03/13 06:48:49;;;;;;;85.70;57.38;;;11.20;69.90;;;;;;5037505;28;20037;-53
2021/03/13 06:51:28;;;;;;;83.68;59.60;;;11.30;69.60;;;;;;5041593;28;20038;-54
2021/03/13 06:54:10;;;;;;;88.18;60.55;;;11.30;69.40;;;;;;5034953;28;21391;-54
2021/03/13 06:56:55;;;;;;;90.45;61.95;;;11.40;69.60;;;;;;5034785;28;20053;-55
2021/03/13 06:59:35;;;;;;;83.28;59.63;;;11.40;69.50;;;;;;5040869;28;20039;-49
2021/03/13 07:02:02;;;;;;;86.95;59.45;;;11.40;68.80;;;;;;5040904;28;20094;-55
2021/03/13 07:04:29;;;;;;;87.22;61.50;;;11.50;68.30;;;;;;5041738;28;20033;-56
2021/03/13 07:06:55;;;;;;;93.05;61.63;;;11.50;68.30;;;;;;5034492;28;20491;-55
2021/03/13 07:09:47;;;;;;;86.68;59.67;;;11.50;67.90;;;;;;5016184;28;20049;-56
2021/03/13 07:12:39;;;;;;;86.15;59.70;;;11.60;67.40;;;;;;4994685;28;20052;-56
2021/03/13 07:15:25;;;;;;;82.65;58.65;;;11.60;67.50;;;;;;5019003;28;20048;-56
2021/03/13 07:17:59;;;;;;;76.32;54.80;;;11.70;67.20;;;;;;5017111;28;20042;-54
2021/03/13 07:20:31;;;;;;;74.30;52.92;;;11.80;66.80;;;;;;5017773;28;20044;-55
2021/03/13 07:22:58;;;;;;;72.07;52.00;;;11.70;65.80;;;;;;5016505;28;20498;-52
2021/03/13 07:25:26;;;;;;;70.78;51.30;;;11.80;64.80;;;;;;5008143;28;20044;-54
2021/03/13 07:27:57;;;;;;;75.93;54.28;;;11.80;64.90;;;;;;5017698;28;20402;-53
2021/03/13 07:30:23;;;;;;;72.30;49.85;;;11.90;64.40;;;;;;5017754;28;20035;-57
2021/03/13 07:33:16;;;;;;;74.72;50.40;;;12.00;64.00;;;;;;5019401;28;20054;-54
2021/03/13 07:35:47;;;;;;;71.95;47.53;;;12.10;62.90;;;;;;5000118;28;20045;-53
2021/03/13 07:38:15;;;;;;;69.68;51.58;;;12.10;62.50;;;;;;5011584;28;20038;-55
2021/03/13 07:40:50;;;;;;;70.50;49.75;;;12.20;62.20;;;;;;5017750;28;20041;-54
2021/03/13 07:43:17;;;;;;;68.03;48.88;;;12.10;60.90;;;;;;5021625;28;20458;-56
2021/03/13 07:45:46;;;;;;;67.97;48.40;;;12.20;61.10;;;;;;5016629;28;20029;-55
2021/03/13 07:48:14;;;;;;;62.83;46.13;;;12.20;60.60;;;;;;5024165;28;20041;-51
2021/03/13 07:50:41;;;;;;;67.13;47.20;;;12.40;60.20;;;;;;5004028;28;20091;-56
2021/03/13 07:53:09;;;;;;;65.50;47.05;;;12.40;59.70;;;;;;5016320;28;20145;-54
2021/03/13 07:55:36;;;;;;;63.80;45.42;;;12.40;59.20;;;;;;5013763;28;20065;-55
2021/03/13 07:58:02;;;;;;;63.10;42.20;;;12.50;58.70;;;;;;5003118;28;20029;-55
2021/03/13 08:00:42;;;;;;;53.28;40.65;;;12.60;57.50;;;;;;5012072;28;20037;-52
2021/03/13 08:06:16;;;;;;;52.08;35.17;;;12.80;55.00;;;;;;4968325;28;20585;-51
2021/03/13 08:08:47;;;;;;;47.42;34.97;;;12.80;55.10;;;;;;5028692;28;20120;-54
2021/03/13 08:11:17;;;;;;;46.00;33.45;;;12.80;55.10;;;;;;5035918;28;20132;-53
2021/03/13 08:13:42;;;;;;;52.30;35.40;;;12.80;54.60;;;;;;5032657;28;20033;-53
2021/03/13 08:19:33;;;;;;;49.85;35.47;;;12.60;53.20;;;;;;5012233;28;20565;-53
2021/03/13 08:22:20;;;;;;;59.03;35.60;;;12.60;54.10;;;;;;5030319;28;20191;-50
2021/03/13 08:24:52;;;;;;;54.03;36.25;;;12.60;53.40;;;;;;5009979;28;20033;-49
2021/03/13 08:27:39;;;;;;;54.30;37.42;;;12.70;54.40;;;;;;5033639;28;20049;-51
2021/03/13 08:30:26;;;;;;;49.70;34.45;;;12.70;54.40;;;;;;5017562;28;20049;-54
2021/03/13 08:33:05;;;;;;;54.83;36.38;;;12.70;53.30;;;;;;5034306;28;20060;-50
2021/03/13 08:35:33;;;;;;;50.83;38.50;;;12.70;53.70;;;;;;5035266;28;20493;-51
2021/03/13 08:37:58;;;;;;;58.58;40.42;;;12.60;54.20;;;;;;5034480;28;20029;-50
2021/03/13 08:40:26;;;;;;;62.78;40.22;;;12.60;54.40;;;;;;5037906;28;21515;-54
2021/03/13 08:42:51;;;;;;;59.08;40.22;;;12.60;54.70;;;;;;5035487;28;20391;-51
2021/03/13 08:45:18;;;;;;;59.70;42.55;;;12.60;54.70;;;;;;5035216;28;20042;-53
2021/03/13 08:47:52;;;;;;;55.20;40.60;;;12.50;54.80;;;;;;5034609;28;20040;-55
2021/03/13 08:50:45;;;;;;;55.70;40.65;;;12.50;54.80;;;;;;5018554;28;20099;-56
2021/03/13 08:53:37;;;;;;;56.28;39.88;;;12.60;55.10;;;;;;4983914;28;20041;-53
2021/03/13 08:56:25;;;;;;;61.03;42.28;;;12.70;54.50;;;;;;5041912;28;20047;-50
2021/03/13 08:58:50;;;;;;;59.70;42.40;;;12.70;55.10;;;;;;4997717;28;20034;-53
2021/03/13 09:01:21;;;;;;;62.70;43.35;;;12.70;55.10;;;;;;5025950;28;20029;-50
2021/03/13 09:03:51;;;;;;;65.50;44.85;;;12.70;54.90;;;;;;5027246;28;20495;-54
2021/03/13 09:06:21;;;;;;;64.75;44.05;;;12.80;54.90;;;;;;5040367;28;20029;-51
2021/03/13 09:08:48;;;;;;;60.92;43.47;;;12.80;54.60;;;;;;5035884;28;20052;-54
2021/03/13 09:11:25;;;;;;;57.53;40.80;;;12.90;54.70;;;;;;5035260;28;20053;-53
2021/03/13 09:14:01;;;;;;;56.92;42.13;;;12.90;54.30;;;;;;5035573;28;20034;-49
2021/03/13 09:16:26;;;;;;;64.43;43.33;;;13.00;54.40;;;;;;5038074;28;20053;-54
2021/03/13 09:18:56;;;;;;;58.47;42.58;;;13.00;54.20;;;;;;5037213;28;20560;-54
2021/03/13 09:21:40;;;;;;;60.45;42.60;;;13.10;54.00;;;;;;5037731;28;20410;-52
2021/03/13 09:24:07;;;;;;;67.00;43.80;;;13.10;54.00;;;;;;5026160;28;20061;-53
2021/03/13 09:26:33;;;;;;;59.10;42.30;;;13.10;54.10;;;;;;5042762;28;20113;-51
2021/03/13 09:28:59;;;;;;;67.95;46.03;;;13.20;54.30;;;;;;5032672;28;20114;-53
2021/03/13 09:31:25;;;;;;;60.60;44.92;;;13.30;54.20;;;;;;5028188;28;20186;-54
2021/03/13 09:33:50;;;;;;;67.15;46.72;;;13.40;54.60;;;;;;5030494;28;20041;-50
2021/03/13 09:36:16;;;;;;;68.20;48.55;;;13.40;54.40;;;;;;5033961;28;20547;-53
2021/03/13 09:38:55;;;;;;;69.03;49.25;;;13.30;55.00;;;;;;5030610;28;20062;-55
2021/03/13 09:41:21;;;;;;;72.30;50.88;;;13.50;55.10;;;;;;5042951;28;20052;-53
2021/03/13 09:43:47;;;;;;;69.28;48.30;;;13.40;55.50;;;;;;5033649;28;20037;-55
2021/03/13 09:49:36;;;;;;;72.90;50.58;;;14.90;57.80;;;;;;5029619;27;20375;-67
2021/03/13 09:52:02;;;;;;;76.38;53.55;;;14.10;56.20;;;;;;5023999;28;20049;-70
2021/03/13 09:54:28;;;;;;;76.35;52.72;;;13.90;56.40;;;;;;5008314;28;20479;-70
2021/03/13 09:57:12;;;;;;;69.35;52.15;;;13.90;56.30;;;;;;5008965;28;20072;-70
2021/03/13 09:59:39;;;;;;;75.43;53.47;;;13.90;56.70;;;;;;4993979;28;20651;-68
2021/03/13 10:02:06;;;;;;;78.47;58.33;;;13.90;57.40;;;;;;5016370;28;20053;-69
2021/03/13 10:04:32;;;;;;;81.57;58.22;;;13.90;57.00;;;;;;5007373;28;20565;-68
2021/03/13 10:06:59;;;;;;;82.40;59.50;;;13.90;57.40;;;;;;5004167;28;20049;-69
2021/03/13 10:09:25;;;;;;;81.50;61.22;;;13.90;57.90;;;;;;5005496;28;20140;-70
2021/03/13 10:11:50;;;;;;;78.85;57.83;;;13.90;58.80;;;;;;5012467;28;20125;-69
2021/03/13 10:14:23;;;;;;;87.32;62.97;;;14.00;58.40;;;;;;5015461;28;20044;-70
2021/03/13 10:16:59;;;;;;;83.88;60.65;;;13.90;58.20;;;;;;5005475;28;20062;-69
2021/03/13 10:19:42;;;;;;;81.80;60.95;;;14.00;58.50;;;;;;5015277;28;20487;-70
2021/03/13 10:22:08;;;;;;;83.57;61.35;;;14.20;58.00;;;;;;5016269;28;20084;-69
2021/03/13 10:24:52;;;;;;;84.03;60.47;;;14.20;57.50;;;;;;4975642;28;20046;-68
2021/03/13 10:27:26;;;;;;;81.60;59.67;;;14.30;57.70;;;;;;5000470;28;20153;-69
2021/03/13 10:29:57;;;;;;;81.07;60.47;;;14.30;57.40;;;;;;4998824;28;20499;-70
2021/03/13 10:32:28;;;;;;;77.35;60.70;;;14.30;57.40;;;;;;5002453;28;20056;-70
2021/03/13 10:35:21;;;;;;;77.45;57.40;;;14.40;57.20;;;;;;4998323;28;20095;-70
2021/03/13 10:37:52;;;;;;;72.30;53.55;;;14.50;56.20;;;;;;4991716;28;20633;-71
2021/03/13 10:40:41;;;;;;;65.30;49.83;;;14.40;54.70;;;;;;5011156;28;20116;-68
2021/03/13 10:43:15;;;;;;;72.00;50.90;;;14.60;54.10;;;;;;4981526;28;20119;-69
2021/03/13 10:46:00;;;;;;;61.88;48.92;;;14.70;53.10;;;;;;5006540;28;20108;-68
2021/03/13 10:48:30;;;;;;;;;;;14.60;52.50;;;;;;4970992;28;20053;-70
2021/03/13 10:50:56;;;;;;;63.60;48.65;;;14.60;51.80;;;;;;5025792;28;19917;-68
2021/03/13 10:53:29;;;;;;;67.32;49.50;;;14.70;52.10;;;;;;5001775;28;20097;-68
2021/03/13 10:55:56;;;;;;;57.67;44.85;;;14.80;51.80;;;;;;5003710;28;20068;-68
2021/03/13 10:58:26;;;;;;;58.22;45.92;;;14.90;51.30;;;;;;4999147;28;20049;-68
2021/03/13 11:00:52;;;;;;;61.03;45.60;;;14.80;50.20;;;;;;4992208;28;20046;-68
2021/03/13 11:03:18;;;;;;;58.17;44.20;;;14.90;50.70;;;;;;4989627;28;20044;-69
2021/03/13 11:05:48;;;;;;;62.90;45.38;;;14.90;49.80;;;;;;4992122;28;20050;-69
2021/03/13 11:08:14;;;;;;;55.17;42.05;;;15.00;49.70;;;;;;4988687;28;20054;-69
2021/03/13 11:10:39;;;;;;;56.60;43.25;;;15.10;47.10;;;;;;4992046;28;20411;-68
2021/03/13 11:13:05;;;;;;;54.25;41.58;;;15.20;47.00;;;;;;4988700;28;20054;-67
2021/03/13 11:15:31;;;;;;;58.13;42.15;;;15.20;47.60;;;;;;4992657;28;20037;-68
2021/03/13 11:17:57;;;;;;;57.33;41.97;;;15.40;47.90;;;;;;4989363;28;20049;-68
2021/03/13 11:20:23;;;;;;;56.67;41.53;;;15.40;46.50;;;;;;5007858;28;20454;-68
2021/03/13 11:22:48;;;;;;;51.05;38.55;;;15.60;45.90;;;;;;4993635;28;20045;-69
2021/03/13 11:25:14;;;;;;;50.42;39.22;;;15.60;45.20;;;;;;4995530;28;20049;-69
2021/03/13 11:27:40;;;;;;;51.92;37.45;;;15.70;44.10;;;;;;4993887;28;20052;-69
2021/03/13 11:30:08;;;;;;;58.95;41.53;;;15.70;45.70;;;;;;5006464;28;20038;-68
2021/03/13 11:32:34;;;;;;;50.78;39.42;;;15.70;44.70;;;;;;4991878;28;20100;-68
2021/03/13 11:35:00;;;;;;;48.97;38.33;;;15.70;43.10;;;;;;4988829;28;20042;-68
2021/03/13 11:37:25;;;;;;;54.88;36.70;;;15.90;44.70;;;;;;4993236;28;20947;-67
2021/03/13 11:39:51;;;;;;;52.88;37.15;;;16.00;44.20;;;;;;4987844;28;20499;-67
2021/03/13 11:42:17;;;;;;;52.95;36.90;;;16.10;43.40;;;;;;4992321;28;20511;-67
2021/03/13 11:44:42;;;;;;;47.63;33.70;;;16.20;43.40;;;;;;4987870;28;20073;-68
2021/03/13 11:47:08;;;;;;;49.08;36.03;;;16.30;41.70;;;;;;4989721;28;20065;-68
2021/03/13 11:49:34;;;;;;;49.63;35.85;;;16.40;42.00;;;;;;4986603;28;21673;-68
2021/03/13 11:51:59;;;;;;;48.83;36.35;;;16.50;42.30;;;;;;4990351;28;20038;-68
2021/03/13 11:54:26;;;;;;;48.78;36.00;;;16.50;41.60;;;;;;4986936;28;20072;-68
2021/03/13 11:56:52;;;;;;;41.00;33.13;;;16.70;41.40;;;;;;4988986;28;20049;-65
2021/03/13 11:59:17;;;;;;;45.90;35.10;;;16.90;41.00;;;;;;4990325;28;20038;-67
2021/03/13 12:01:43;;;;;;;51.35;37.60;;;16.90;40.80;;;;;;4991021;28;20102;-67
2021/03/13 12:04:08;;;;;;;45.80;35.70;;;17.10;40.60;;;;;;4990280;28;20378;-66
2021/03/13 12:06:34;;;;;;;45.97;36.45;;;17.20;39.60;;;;;;4987615;28;20054;-68
2021/03/13 12:09:00;;;;;;;44.88;34.95;;;17.30;39.60;;;;;;4992323;28;20573;-69
2021/03/13 12:11:26;;;;;;;43.63;33.47;;;17.40;39.60;;;;;;4984863;28;20133;-69
2021/03/13 12:13:51;;;;;;;46.15;33.40;;;17.60;38.30;;;;;;4991091;28;20854;-66
2021/03/13 12:16:17;;;;;;;41.63;32.80;;;17.90;37.60;;;;;;4995134;28;20034;-68
2021/03/13 12:18:42;;;;;;;43.17;34.22;;;18.00;37.70;;;;;;4992073;28;20116;-68
2021/03/13 12:21:08;;;;;;;44.30;34.42;;;18.00;37.60;;;;;;4987992;28;20030;-67
2021/03/13 12:23:33;;;;;;;44.92;33.42;;;18.20;37.20;;;;;;4991526;28;20089;-70
2021/03/13 12:25:59;;;;;;;38.72;31.58;;;18.30;36.40;;;;;;4989200;28;20050;-67
2021/03/13 12:28:27;;;;;;;41.95;32.42;;;18.40;36.90;;;;;;4995740;28;20061;-69
2021/03/13 12:30:53;;;;;;;40.58;30.80;;;18.70;36.20;;;;;;4987714;28;20030;-71
2021/03/13 12:33:18;;;;;;;37.67;31.77;;;18.80;35.80;;;;;;4998456;28;20042;-70
2021/03/13 12:35:44;;;;;;;38.85;30.40;;;18.90;34.60;;;;;;4989666;28;20120;-71
2021/03/13 12:38:10;;;;;;;40.58;33.08;;;19.20;35.20;;;;;;4993835;28;20046;-67
2021/03/13 12:40:37;;;;;;;42.63;31.27;;;19.60;32.50;;;;;;4993865;28;20049;-72
2021/03/13 12:43:03;;;;;;;43.38;32.38;;;21.30;32.30;;;;;;4990652;28;20083;-73
2021/03/13 12:45:28;;;;;;;40.95;31.10;;;23.80;28.10;;;;;;4993566;28;20450;-75
2021/03/13 12:47:54;;;;;;;41.00;31.40;;;26.50;26.50;;;;;;4989087;28;20057;-74
2021/03/13 12:50:19;;;;;;;40.33;32.17;;;27.50;24.60;;;;;;4993087;28;20041;-74
2021/03/13 12:52:45;;;;;;;35.72;30.90;;;26.80;23.20;;;;;;4984236;28;20042;-75
2021/03/13 12:55:13;;;;;;;37.13;30.92;;;28.00;24.20;;;;;;4990726;28;20049;-75
2021/03/13 12:57:39;;;;;;;39.53;31.13;;;28.70;22.70;;;;;;4990203;28;20133;-74
2021/03/13 13:00:05;;;;;;;42.15;32.95;;;29.20;22.10;;;;;;4990195;28;20042;-76
2021/03/13 13:02:30;;;;;;;37.10;30.75;;;30.70;21.30;;;;;;4989791;28;20034;-74
2021/03/13 13:04:56;;;;;;;39.47;32.40;;;31.20;19.70;;;;;;4990354;28;20093;-74
2021/03/13 13:07:21;;;;;;;36.88;30.70;;;31.00;18.80;;;;;;5009323;28;20060;-73
2021/03/13 13:09:47;;;;;;;40.65;34.47;;;32.30;19.60;;;;;;4996046;28;20040;-77
2021/03/13 13:12:13;;;;;;;49.65;38.05;;;33.20;18.70;;;;;;4988886;28;20096;-79
2021/03/13 13:14:38;;;;;;;36.10;30.92;;;33.10;17.40;;;;;;4997419;28;20487;-79
2021/03/13 13:17:04;;;;;;;37.58;31.38;;;32.40;18.40;;;;;;4994375;28;20034;-78
2021/03/13 13:19:30;;;;;;;33.75;30.05;;;32.30;16.70;;;;;;4997323;28;20491;-78
2021/03/13 13:21:56;;;;;;;33.35;29.77;;;31.70;16.20;;;;;;4997550;28;20042;-79
2021/03/13 13:24:21;;;;;;;39.80;28.17;;;32.00;16.80;;;;;;4997584;28;20054;-77
2021/03/13 13:26:47;;;;;;;36.17;29.67;;;32.50;17.00;;;;;;4999691;28;20042;-76